Time;durP1;ratioP1;P1;durP2;ratioP2;P2;SDS_P1;SDS_P2;PMS_P1;PMS_P2;Temp;Humidity;BMP_temperature;BMP_pressure;BME280_temperature;BME280_humidity;BME280_pressure;Samples;Min_cycle;Max_cycle;Signal;HPM_P1;HPM_P2
2021/04/28 00:01:30;;;;;;;13.75;8.98;;;;;;;;;;5114270;28;20095;-69
2021/04/28 00:03:55;;;;;;;11.90;8.55;;;;;;;;;;5113843;28;20439;-69
2021/04/28 00:06:21;;;;;;;10.52;8.30;;;;;;;;;;5114159;28;20023;-69
2021/04/28 00:08:46;;;;;;;11.45;7.82;;;;;;;;;;5113710;28;20035;-69
2021/04/28 00:11:12;;;;;;;11.18;7.82;;;;;;;;;;5114458;28;20012;-68
2021/04/28 00:13:37;;;;;;;12.10;8.55;;;;;;;;;;5112841;28;20027;-68
2021/04/28 00:16:03;;;;;;;14.02;8.43;;;;;;;;;;5114199;28;20020;-68
2021/04/28 00:18:28;;;;;;;11.60;7.47;;;;;;;;;;5113956;28;20118;-69
2021/04/28 00:20:54;;;;;;;11.40;8.15;;;;;;;;;;5113933;28;20020;-69
2021/04/28 00:23:19;;;;;;;15.02;8.60;;;;;;;;;;5114180;28;20047;-69
2021/04/28 00:25:45;;;;;;;14.18;8.68;;;;;;;;;;5114102;28;20026;-69
2021/04/28 00:28:11;;;;;;;12.02;8.00;;;;;;;;;;5114076;28;20016;-69
2021/04/28 00:30:37;;;;;;;13.82;8.40;;;;;;;;;;5112916;28;20012;-69
2021/04/28 00:33:03;;;;;;;12.75;8.52;;;;;;;;;;5113901;28;20469;-69
2021/04/28 00:35:28;;;;;;;10.30;8.48;;;;;;;;;;5113919;28;20019;-69
2021/04/28 00:37:54;;;;;;;12.88;8.48;;;;;;;;;;5113655;28;20027;-68
2021/04/28 00:40:22;;;;;;;15.27;8.98;;;;;;;;;;5112582;28;20030;-69
2021/04/28 00:42:48;;;;;;;11.02;8.27;;;;;;;;;;5113554;28;20044;-70
2021/04/28 00:45:14;;;;;;;15.20;8.65;;;;;;;;;;5112696;28;20027;-70
2021/04/28 00:47:40;;;;;;;12.57;8.85;;;;;;;;;;5112563;28;20135;-70
2021/04/28 00:50:06;;;;;;;12.25;8.90;;;;;;;;;;5113613;28;20520;-69
2021/04/28 00:52:32;;;;;;;13.95;8.75;;;;;;;;;;5113836;28;20028;-69
2021/04/28 00:54:58;;;;;;;13.60;8.70;;;;;;;;;;5112314;28;20404;-70
2021/04/28 00:57:24;;;;;;;12.60;8.60;;;;;;;;;;5113873;28;20124;-70
2021/04/28 00:59:50;;;;;;;10.98;8.65;;;;;;;;;;5113658;28;20472;-70
2021/04/28 01:02:16;;;;;;;14.30;8.40;;;;;;;;;;5113535;28;20110;-70
2021/04/28 01:04:42;;;;;;;13.40;8.80;;;;;;;;;;5112470;28;20149;-69
2021/04/28 01:07:08;;;;;;;10.55;8.73;;;;;;;;;;5112140;28;20031;-69
2021/04/28 01:09:38;;;;;;;11.45;8.10;;;;;;;;;;5113676;28;20016;-69
2021/04/28 01:12:04;;;;;;;12.95;8.32;;;;;;;;;;5113944;28;20106;-69
2021/04/28 01:14:32;;;;;;;14.70;8.95;;;;;;;;;;5112588;28;20035;-68
2021/04/28 01:16:58;;;;;;;13.90;7.85;;;;;;;;;;5116042;28;20061;-68
2021/04/28 01:19:26;;;;;;;12.90;8.00;;;;;;;;;;5116041;28;20027;-68
2021/04/28 01:21:55;;;;;;;11.73;8.07;;;;;;;;;;5116191;28;20077;-67
2021/04/28 01:24:21;;;;;;;13.55;8.18;;;;;;;;;;5116150;28;20047;-68
2021/04/28 01:26:50;;;;;;;11.85;7.88;;;;;;;;;;5116173;28;20073;-69
2021/04/28 01:29:18;;;;;;;10.48;7.57;;;;;;;;;;5117441;28;20019;-67
2021/04/28 01:31:44;;;;;;;10.85;8.25;;;;;;;;;;5117194;28;20401;-66
2021/04/28 01:34:09;;;;;;;9.63;7.60;;;;;;;;;;5116101;28;20019;-65
2021/04/28 01:36:37;;;;;;;13.40;8.70;;;;;;;;;;5116119;28;20039;-68
2021/04/28 01:39:07;;;;;;;12.65;8.52;;;;;;;;;;5115874;28;20015;-68
2021/04/28 01:41:41;;;;;;;12.85;8.63;;;;;;;;;;5115175;28;20608;-67
2021/04/28 01:44:09;;;;;;;11.95;8.18;;;;;;;;;;5117132;28;20082;-66
2021/04/28 01:46:34;;;;;;;10.80;7.97;;;;;;;;;;5115618;28;20490;-66
2021/04/28 01:49:00;;;;;;;13.32;7.78;;;;;;;;;;5115704;28;20024;-67
2021/04/28 01:51:27;;;;;;;11.77;8.35;;;;;;;;;;5115463;28;20011;-67
2021/04/28 01:53:53;;;;;;;12.88;8.43;;;;;;;;;;5115222;28;20031;-67
2021/04/28 01:56:20;;;;;;;12.73;8.30;;;;;;;;;;5115712;28;20504;-66
2021/04/28 01:59:05;;;;;;;11.88;7.68;;;;;;;;;;5116865;28;20077;-68
2021/04/28 02:01:53;;;;;;;11.02;7.72;;;;;;;;;;5115463;28;20031;-67
2021/04/28 02:04:21;;;;;;;11.43;7.68;;;;;;;;;;5115414;28;20500;-68
2021/04/28 02:06:49;;;;;;;10.45;8.13;;;;;;;;;;5098174;28;20015;-68
2021/04/28 02:09:15;;;;;;;11.55;7.70;;;;;;;;;;5114982;28;20465;-68
2021/04/28 02:11:41;;;;;;;13.45;8.40;;;;;;;;;;5114984;28;20024;-67
2021/04/28 02:14:12;;;;;;;13.07;8.23;;;;;;;;;;5116220;28;20028;-65
2021/04/28 02:16:54;;;;;;;11.50;7.80;;;;;;;;;;5114817;28;20450;-68
2021/04/28 02:19:22;;;;;;;10.80;7.70;;;;;;;;;;5114601;28;20485;-68
2021/04/28 02:21:52;;;;;;;11.65;7.97;;;;;;;;;;5114472;28;20026;-69
2021/04/28 02:24:36;;;;;;;10.77;7.53;;;;;;;;;;5116304;28;20080;-67
2021/04/28 02:27:02;;;;;;;10.40;7.45;;;;;;;;;;5114217;28;20028;-67
2021/04/28 02:29:29;;;;;;;15.43;8.05;;;;;;;;;;5114568;28;20125;-65
2021/04/28 02:31:55;;;;;;;10.57;8.40;;;;;;;;;;5114418;28;20067;-65
2021/04/28 02:34:31;;;;;;;10.57;7.95;;;;;;;;;;5114453;28;20019;-65
2021/04/28 02:37:07;;;;;;;13.18;8.57;;;;;;;;;;5114750;28;20031;-65
2021/04/28 02:39:54;;;;;;;13.43;8.70;;;;;;;;;;5116421;28;20478;-67
2021/04/28 02:42:20;;;;;;;11.35;7.70;;;;;;;;;;5113711;28;20063;-67
2021/04/28 02:44:47;;;;;;;15.90;8.63;;;;;;;;;;5114679;28;20020;-67
2021/04/28 02:47:14;;;;;;;12.68;8.27;;;;;;;;;;5114694;28;20484;-67
2021/04/28 02:49:41;;;;;;;12.90;8.02;;;;;;;;;;5097361;28;20047;-67
2021/04/28 02:52:28;;;;;;;10.88;7.88;;;;;;;;;;5115478;28;20112;-66
2021/04/28 02:54:54;;;;;;;11.07;7.68;;;;;;;;;;5114451;28;20027;-65
2021/04/28 02:57:21;;;;;;;12.82;7.82;;;;;;;;;;5114420;28;20020;-66
2021/04/28 02:59:48;;;;;;;11.48;8.00;;;;;;;;;;5097491;28;20062;-66
2021/04/28 03:02:15;;;;;;;11.80;7.90;;;;;;;;;;5114387;28;20429;-68
2021/04/28 03:04:41;;;;;;;10.40;8.00;;;;;;;;;;5114303;28;20027;-68
2021/04/28 03:07:31;;;;;;;13.00;8.65;;;;;;;;;;5100434;28;20106;-67
2021/04/28 03:09:57;;;;;;;10.80;7.90;;;;;;;;;;5114027;28;20080;-68
2021/04/28 03:12:23;;;;;;;9.85;7.57;;;;;;;;;;5115106;28;20023;-65
2021/04/28 03:14:52;;;;;;;11.93;7.85;;;;;;;;;;5115302;28;20038;-65
2021/04/28 03:17:21;;;;;;;13.27;7.88;;;;;;;;;;5113922;28;20047;-65
2021/04/28 03:19:48;;;;;;;14.52;7.85;;;;;;;;;;5114992;28;20032;-65
2021/04/28 03:22:15;;;;;;;12.63;8.60;;;;;;;;;;5096797;28;20469;-65
2021/04/28 03:24:42;;;;;;;11.57;7.32;;;;;;;;;;5113818;28;20063;-65
2021/04/28 03:27:09;;;;;;;12.98;8.15;;;;;;;;;;5113555;28;20043;-65
2021/04/28 03:29:37;;;;;;;12.55;7.57;;;;;;;;;;5113721;28;20027;-65
2021/04/28 03:32:04;;;;;;;12.40;8.52;;;;;;;;;;5114837;28;20034;-65
2021/04/28 03:34:30;;;;;;;12.25;8.10;;;;;;;;;;5113640;28;20123;-65
2021/04/28 03:36:57;;;;;;;13.23;8.45;;;;;;;;;;5113259;28;20031;-65
2021/04/28 03:39:33;;;;;;;11.68;8.25;;;;;;;;;;5113291;28;20035;-65
2021/04/28 03:41:59;;;;;;;13.80;8.45;;;;;;;;;;5113058;28;20044;-66
2021/04/28 03:44:25;;;;;;;12.52;8.30;;;;;;;;;;5114684;28;20051;-65
2021/04/28 03:46:54;;;;;;;11.20;8.00;;;;;;;;;;5113449;28;20027;-65
2021/04/28 03:49:20;;;;;;;13.38;8.60;;;;;;;;;;5113241;28;20016;-65
2021/04/28 03:51:46;;;;;;;14.30;8.13;;;;;;;;;;5113283;28;20035;-64
2021/04/28 03:54:15;;;;;;;15.30;9.10;;;;;;;;;;5114442;28;20042;-64
2021/04/28 03:56:41;;;;;;;13.55;9.05;;;;;;;;;;5113132;28;20438;-65
2021/04/28 03:59:07;;;;;;;14.73;8.90;;;;;;;;;;5113359;28;20058;-64
2021/04/28 04:01:33;;;;;;;13.80;9.30;;;;;;;;;;5114279;28;20339;-64
2021/04/28 04:04:01;;;;;;;13.07;9.43;;;;;;;;;;5113176;28;20065;-66
2021/04/28 04:06:45;;;;;;;15.63;9.02;;;;;;;;;;5114643;28;20046;-66
2021/04/28 04:09:29;;;;;;;13.55;9.27;;;;;;;;;;5114739;28;20381;-67
2021/04/28 04:11:55;;;;;;;14.32;9.10;;;;;;;;;;5113090;28;20100;-68
2021/04/28 04:14:29;;;;;;;13.88;9.13;;;;;;;;;;5113026;28;20018;-68
2021/04/28 04:16:56;;;;;;;15.07;9.75;;;;;;;;;;5114037;28;20069;-68
2021/04/28 04:19:21;;;;;;;14.35;8.70;;;;;;;;;;5114229;28;20024;-67
2021/04/28 04:22:05;;;;;;;17.67;8.77;;;;;;;;;;5114511;28;20537;-66
2021/04/28 04:25:04;;;;;;;13.70;9.40;;;;;;;;;;5079410;28;20031;-65
2021/04/28 04:27:31;;;;;;;12.90;8.98;;;;;;;;;;5112792;28;20073;-68
2021/04/28 04:30:26;;;;;;;14.38;9.20;;;;;;;;;;5023667;28;20037;-67
2021/04/28 04:33:01;;;;;;;15.27;9.25;;;;;;;;;;5114429;28;20047;-65
2021/04/28 04:35:46;;;;;;;17.25;9.75;;;;;;;;;;5114424;28;20042;-65
2021/04/28 04:38:30;;;;;;;13.35;9.93;;;;;;;;;;5113154;28;20066;-66
2021/04/28 04:41:14;;;;;;;17.92;10.68;;;;;;;;;;5114092;28;20078;-66
2021/04/28 04:44:03;;;;;;;15.88;9.05;;;;;;;;;;5102699;28;20050;-64
2021/04/28 04:46:38;;;;;;;15.65;9.23;;;;;;;;;;5114088;28;20032;-63
2021/04/28 04:49:04;;;;;;;15.23;9.38;;;;;;;;;;5113782;28;20369;-60
2021/04/28 04:51:29;;;;;;;90.65;55.28;;;;;;;;;;5117445;28;20031;-62
2021/04/28 04:53:55;;;;;;;20.45;16.58;;;;;;;;;;5117816;28;20066;-63
2021/04/28 04:56:21;;;;;;;14.48;11.20;;;;;;;;;;5116430;28;20034;-63
2021/04/28 04:58:46;;;;;;;13.85;9.57;;;;;;;;;;5116312;28;20036;-64
2021/04/28 05:01:12;;;;;;;11.93;8.57;;;;;;;;;;5117249;28;20059;-62
2021/04/28 05:03:37;;;;;;;14.02;9.15;;;;;;;;;;5117619;28;20030;-62
2021/04/28 05:06:03;;;;;;;15.60;9.32;;;;;;;;;;5117869;28;20011;-65
2021/04/28 05:08:28;;;;;;;13.40;9.40;;;;;;;;;;5117724;28;20042;-67
2021/04/28 05:10:54;;;;;;;12.85;8.68;;;;;;;;;;5117570;28;20025;-63
2021/04/28 05:13:20;;;;;;;14.27;9.48;;;;;;;;;;5117561;28;20157;-64
2021/04/28 05:15:45;;;;;;;16.08;9.00;;;;;;;;;;5117418;28;20023;-63
2021/04/28 05:18:11;;;;;;;13.00;9.02;;;;;;;;;;5117478;28;20024;-64
2021/04/28 05:20:36;;;;;;;12.95;8.38;;;;;;;;;;5116616;28;20064;-64
2021/04/28 05:23:02;;;;;;;11.98;8.02;;;;;;;;;;5117341;28;20084;-64
2021/04/28 05:25:31;;;;;;;12.45;8.18;;;;;;;;;;5117311;28;20031;-64
2021/04/28 05:27:56;;;;;;;12.00;7.75;;;;;;;;;;5117084;28;20024;-64
2021/04/28 05:30:22;;;;;;;12.25;8.10;;;;;;;;;;5116038;27;20023;-64
2021/04/28 05:32:48;;;;;;;13.15;9.23;;;;;;;;;;5116022;28;20031;-64
2021/04/28 05:35:13;;;;;;;14.77;9.60;;;;;;;;;;5115369;28;20020;-64
2021/04/28 05:37:39;;;;;;;13.65;8.75;;;;;;;;;;5116657;28;20473;-64
2021/04/28 05:40:05;;;;;;;19.98;13.13;;;;;;;;;;5116584;28;20023;-63
2021/04/28 05:42:32;;;;;;;13.32;8.40;;;;;;;;;;5115926;28;20047;-64
2021/04/28 05:44:57;;;;;;;13.15;8.30;;;;;;;;;;5116476;28;20039;-64
2021/04/28 05:47:22;;;;;;;10.27;7.78;;;;;;;;;;5116704;28;20012;-64
2021/04/28 05:49:48;;;;;;;11.90;8.25;;;;;;;;;;5116587;28;20362;-64
2021/04/28 05:52:14;;;;;;;12.55;7.80;;;;;;;;;;5116733;28;20023;-64
2021/04/28 05:54:40;;;;;;;12.45;8.48;;;;;;;;;;5117030;28;20443;-65
2021/04/28 05:57:05;;;;;;;10.68;7.40;;;;;;;;;;5117058;28;20020;-64
2021/04/28 05:59:30;;;;;;;11.05;6.95;;;;;;;;;;5116820;28;20027;-61
2021/04/28 06:01:56;;;;;;;11.95;6.70;;;;;;;;;;5115782;28;20385;-63
2021/04/28 06:04:21;;;;;;;9.02;5.43;;;;;;;;;;5116557;28;20016;-63
2021/04/28 06:06:47;;;;;;;13.85;7.85;;;;;;;;;;5116541;28;20015;-63
2021/04/28 06:09:13;;;;;;;10.32;6.93;;;;;;;;;;5116620;28;20053;-63
2021/04/28 06:11:38;;;;;;;13.57;6.90;;;;;;;;;;5116609;28;20050;-63
2021/04/28 06:14:04;;;;;;;9.80;6.85;;;;;;;;;;5116257;28;20607;-63
2021/04/28 06:16:29;;;;;;;8.77;6.53;;;;;;;;;;5116371;28;20015;-63
2021/04/28 06:18:55;;;;;;;7.38;5.55;;;;;;;;;;5116262;28;20034;-63
2021/04/28 06:21:20;;;;;;;9.73;6.82;;;;;;;;;;5116523;28;20148;-63
2021/04/28 06:23:46;;;;;;;9.80;6.10;;;;;;;;;;5116272;28;20034;-63
2021/04/28 06:26:11;;;;;;;9.75;6.85;;;;;;;;;;5114556;28;20016;-63
2021/04/28 06:28:37;;;;;;;9.10;6.65;;;;;;;;;;5114483;28;20089;-65
2021/04/28 06:31:03;;;;;;;7.43;6.00;;;;;;;;;;5116070;28;20022;-64
2021/04/28 06:33:28;;;;;;;10.60;6.22;;;;;;;;;;5116026;28;20027;-62
2021/04/28 06:35:54;;;;;;;6.93;5.47;;;;;;;;;;5115030;28;20020;-63
2021/04/28 06:38:20;;;;;;;7.95;6.10;;;;;;;;;;5116109;28;20036;-62
2021/04/28 06:40:45;;;;;;;7.30;5.55;;;;;;;;;;5115883;27;20020;-62
2021/04/28 06:43:11;;;;;;;7.85;5.70;;;;;;;;;;5114183;28;20123;-62
2021/04/28 06:45:36;;;;;;;7.88;5.80;;;;;;;;;;5112902;28;20031;-62
2021/04/28 06:48:06;;;;;;;7.75;5.43;;;;;;;;;;5114863;28;20016;-62
2021/04/28 06:50:31;;;;;;;7.75;5.63;;;;;;;;;;5115221;28;20023;-62
2021/04/28 06:52:57;;;;;;;7.00;6.05;;;;;;;;;;5114732;28;20032;-62
2021/04/28 06:55:23;;;;;;;10.40;6.55;;;;;;;;;;5115067;28;20027;-62
2021/04/28 06:57:58;;;;;;;9.60;6.50;;;;;;;;;;5113905;28;20477;-62
2021/04/28 07:00:24;;;;;;;11.40;5.50;;;;;;;;;;5115150;28;20035;-62
2021/04/28 07:02:50;;;;;;;7.47;5.75;;;;;;;;;;5115141;28;20031;-62
2021/04/28 07:05:16;;;;;;;7.20;4.38;;;;;;;;;;5115138;28;20086;-62
2021/04/28 07:07:41;;;;;;;8.63;5.22;;;;;;;;;;5113801;28;20058;-62
2021/04/28 07:10:07;;;;;;;10.18;5.20;;;;;;;;;;5114979;28;20030;-62
2021/04/28 07:12:33;;;;;;;9.15;5.50;;;;;;;;;;5114043;28;20023;-62
2021/04/28 07:14:58;;;;;;;7.43;5.82;;;;;;;;;;5113652;28;20028;-62
2021/04/28 07:17:24;;;;;;;8.25;5.68;;;;;;;;;;5114849;28;20012;-62
2021/04/28 07:19:49;;;;;;;8.13;5.30;;;;;;;;;;5114471;28;20111;-63
2021/04/28 07:22:15;;;;;;;6.03;4.72;;;;;;;;;;5114997;28;20389;-62
2021/04/28 07:24:40;;;;;;;7.63;5.10;;;;;;;;;;5113336;28;20156;-62
2021/04/28 07:27:05;;;;;;;6.30;4.40;;;;;;;;;;5114559;28;20064;-62
2021/04/28 07:29:31;;;;;;;5.82;4.88;;;;;;;;;;5114657;28;20115;-62
2021/04/28 07:31:58;;;;;;;6.03;4.30;;;;;;;;;;5114587;28;20051;-62
2021/04/28 07:34:24;;;;;;;5.05;4.13;;;;;;;;;;5114555;28;20080;-62
2021/04/28 07:36:49;;;;;;;5.28;4.50;;;;;;;;;;5114282;28;20525;-62
2021/04/28 07:39:14;;;;;;;5.32;4.75;;;;;;;;;;5096545;28;20027;-62
2021/04/28 07:41:40;;;;;;;6.07;4.70;;;;;;;;;;5112577;28;20043;-62
2021/04/28 07:44:05;;;;;;;5.63;3.97;;;;;;;;;;5114485;28;20035;-62
2021/04/28 07:46:33;;;;;;;6.10;4.28;;;;;;;;;;5114575;28;20028;-62
2021/04/28 07:49:04;;;;;;;10.73;4.38;;;;;;;;;;5114767;28;20055;-62
2021/04/28 07:51:32;;;;;;;7.00;4.82;;;;;;;;;;5114434;28;20026;-62
2021/04/28 07:53:58;;;;;;;6.28;4.53;;;;;;;;;;5114612;28;20350;-62
2021/04/28 07:56:23;;;;;;;5.10;4.50;;;;;;;;;;5114344;28;20106;-62
2021/04/28 07:58:49;;;;;;;7.28;4.43;;;;;;;;;;5114777;28;20081;-62
2021/04/28 08:01:14;;;;;;;6.70;3.83;;;;;;;;;;5114753;28;20028;-62
2021/04/28 08:03:40;;;;;;;7.03;4.25;;;;;;;;;;5114371;28;20023;-62
2021/04/28 08:06:05;;;;;;;4.75;4.05;;;;;;;;;;5114266;28;20026;-62
2021/04/28 08:08:31;;;;;;;6.13;4.45;;;;;;;;;;5112901;28;20106;-62
2021/04/28 08:10:57;;;;;;;4.50;4.10;;;;;;;;;;5114111;28;20027;-62
2021/04/28 08:13:23;;;;;;;5.80;4.03;;;;;;;;;;5113957;28;20015;-62
2021/04/28 08:15:48;;;;;;;7.38;4.55;;;;;;;;;;5114203;28;20031;-62
2021/04/28 08:18:14;;;;;;;11.13;5.03;;;;;;;;;;5114292;28;20106;-62
2021/04/28 08:20:39;;;;;;;7.22;4.70;;;;;;;;;;5114085;28;20068;-62
2021/04/28 08:23:05;;;;;;;5.07;4.38;;;;;;;;;;5114050;28;20488;-62
2021/04/28 08:25:31;;;;;;;5.20;3.92;;;;;;;;;;5113843;28;20035;-62
2021/04/28 08:27:56;;;;;;;8.48;4.88;;;;;;;;;;5114073;28;20012;-62
2021/04/28 08:30:22;;;;;;;11.55;7.85;;;;;;;;;;5113979;28;20026;-62
2021/04/28 08:32:47;;;;;;;7.68;6.13;;;;;;;;;;5113723;28;20033;-62
2021/04/28 08:35:15;;;;;;;7.28;4.95;;;;;;;;;;5114005;28;20031;-62
2021/04/28 08:37:41;;;;;;;5.30;4.80;;;;;;;;;;5113590;28;20055;-62
2021/04/28 08:40:07;;;;;;;8.82;7.10;;;;;;;;;;5113671;28;20114;-62
2021/04/28 08:42:32;;;;;;;5.95;5.35;;;;;;;;;;5113232;28;20122;-62
2021/04/28 08:44:58;;;;;;;4.40;4.00;;;;;;;;;;5113822;28;20022;-62
2021/04/28 08:47:24;;;;;;;4.18;3.78;;;;;;;;;;5114145;28;20452;-62
2021/04/28 08:49:49;;;;;;;4.07;3.03;;;;;;;;;;5113865;28;20026;-63
2021/04/28 08:52:15;;;;;;;6.15;3.67;;;;;;;;;;5113831;28;20055;-63
2021/04/28 08:54:41;;;;;;;6.95;4.05;;;;;;;;;;5112595;28;20051;-62
2021/04/28 08:57:10;;;;;;;7.47;5.15;;;;;;;;;;5113869;28;20016;-63
2021/04/28 08:59:37;;;;;;;5.68;5.07;;;;;;;;;;5112818;28;20366;-63
2021/04/28 09:02:16;;;;;;;7.90;5.05;;;;;;;;;;5113575;28;20020;-63
2021/04/28 09:04:42;;;;;;;4.80;4.27;;;;;;;;;;5113686;28;20052;-63
2021/04/28 09:07:08;;;;;;;8.10;5.15;;;;;;;;;;5113117;28;20020;-63
2021/04/28 09:09:33;;;;;;;5.00;3.95;;;;;;;;;;5113863;28;20473;-62
2021/04/28 09:11:59;;;;;;;5.03;4.53;;;;;;;;;;5113350;28;20020;-62
2021/04/28 09:14:27;;;;;;;3.97;3.22;;;;;;;;;;5113180;28;20031;-62
2021/04/28 09:16:55;;;;;;;2.95;2.65;;;;;;;;;;5113311;28;20377;-62
2021/04/28 09:19:50;;;;;;;5.32;4.60;;;;;;;;;;5112276;28;20543;-62
2021/04/28 09:23:11;;;;;;;4.13;2.63;;;;;;;;;;5049936;28;20033;-63
2021/04/28 09:26:16;;;;;;;3.42;2.25;;;;;;;;;;5113248;28;20074;-62
2021/04/28 09:29:15;;;;;;;4.35;3.42;;;;;;;;;;5075307;28;20119;-62
2021/04/28 09:31:52;;;;;;;6.97;5.13;;;;;;;;;;5113403;28;20019;-62
2021/04/28 09:34:24;;;;;;;6.20;4.57;;;;;;;;;;5113266;28;20035;-62
2021/04/28 09:36:58;;;;;;;5.35;4.75;;;;;;;;;;5114648;28;20039;-62
2021/04/28 09:39:23;;;;;;;6.57;4.82;;;;;;;;;;5114856;28;20028;-62
2021/04/28 09:41:56;;;;;;;5.78;4.57;;;;;;;;;;5114927;28;20040;-62
2021/04/28 09:44:28;;;;;;;5.25;3.15;;;;;;;;;;5116800;28;20072;-62
2021/04/28 09:46:54;;;;;;;5.05;3.67;;;;;;;;;;5116156;28;20027;-63
2021/04/28 09:49:19;;;;;;;5.60;4.55;;;;;;;;;;5116008;28;20102;-62
2021/04/28 09:51:47;;;;;;;9.30;5.30;;;;;;;;;;5116378;28;20019;-62
2021/04/28 09:54:13;;;;;;;7.30;4.97;;;;;;;;;;5116556;28;20464;-62
2021/04/28 09:56:39;;;;;;;3.75;3.38;;;;;;;;;;5116599;28;20038;-62
2021/04/28 09:59:05;;;;;;;4.53;3.67;;;;;;;;;;5116358;28;20537;-62
2021/04/28 10:01:31;;;;;;;5.43;4.40;;;;;;;;;;5116146;28;20157;-63
2021/04/28 10:03:57;;;;;;;4.90;4.40;;;;;;;;;;5114716;28;20031;-62
2021/04/28 10:06:42;;;;;;;5.57;4.80;;;;;;;;;;5115330;28;20027;-62
2021/04/28 10:09:25;;;;;;;5.72;5.13;;;;;;;;;;5115105;28;20069;-62
2021/04/28 10:11:50;;;;;;;8.00;4.72;;;;;;;;;;5116151;28;20424;-63
2021/04/28 10:14:16;;;;;;;6.45;4.97;;;;;;;;;;5114950;28;20023;-63
2021/04/28 10:16:41;;;;;;;6.32;4.70;;;;;;;;;;5116089;28;20035;-63
2021/04/28 10:19:07;;;;;;;2.92;2.67;;;;;;;;;;5116135;28;20015;-63
2021/04/28 10:21:32;;;;;;;9.00;5.72;;;;;;;;;;5114741;28;20561;-63
2021/04/28 10:23:59;;;;;;;5.57;4.57;;;;;;;;;;5115856;28;20114;-62
2021/04/28 10:26:25;;;;;;;7.68;5.00;;;;;;;;;;5115869;28;20032;-63
2021/04/28 10:28:51;;;;;;;7.22;5.38;;;;;;;;;;5116028;28;20069;-63
2021/04/28 10:31:17;;;;;;;5.97;5.25;;;;;;;;;;5116231;28;20027;-63
2021/04/28 10:33:43;;;;;;;5.50;4.80;;;;;;;;;;5115977;28;20032;-63
2021/04/28 10:36:09;;;;;;;8.18;5.63;;;;;;;;;;5116034;28;20077;-63
2021/04/28 10:38:35;;;;;;;6.50;4.82;;;;;;;;;;5116006;27;20019;-63
2021/04/28 10:41:00;;;;;;;6.10;5.18;;;;;;;;;;5115944;28;20358;-63
2021/04/28 10:43:38;;;;;;;6.55;4.32;;;;;;;;;;5115840;28;20048;-63
2021/04/28 10:46:19;;;;;;;8.18;4.47;;;;;;;;;;5115910;28;20461;-63
2021/04/28 10:48:46;;;;;;;5.38;4.80;;;;;;;;;;5115617;28;20485;-63
2021/04/28 10:51:30;;;;;;;6.57;5.20;;;;;;;;;;5115704;28;20102;-63
2021/04/28 10:54:14;;;;;;;6.00;5.20;;;;;;;;;;5115526;28;20027;-63
2021/04/28 10:57:00;;;;;;;11.60;7.60;;;;;;;;;;5115642;28;20028;-63
2021/04/28 10:59:37;;;;;;;6.90;4.80;;;;;;;;;;5114908;28;20039;-64
2021/04/28 11:02:10;;;;;;;7.15;5.22;;;;;;;;;;5115329;28;20042;-64
2021/04/28 11:04:36;;;;;;;5.68;5.00;;;;;;;;;;5114120;28;20077;-64
2021/04/28 11:07:02;;;;;;;4.70;3.83;;;;;;;;;;5115724;28;20023;-64
2021/04/28 11:09:28;;;;;;;7.70;5.35;;;;;;;;;;5115471;28;20027;-63
2021/04/28 11:11:54;;;;;;;6.93;4.95;;;;;;;;;;5115313;28;20016;-63
2021/04/28 11:14:22;;;;;;;6.97;5.28;;;;;;;;;;5115195;28;20033;-63
2021/04/28 11:16:55;;;;;;;10.20;6.88;;;;;;;;;;5115260;28;20022;-63
2021/04/28 11:19:31;;;;;;;6.25;5.30;;;;;;;;;;5113952;28;20051;-64
2021/04/28 11:22:10;;;;;;;5.57;5.07;;;;;;;;;;5115034;28;20080;-64
2021/04/28 11:25:02;;;;;;;6.18;4.57;;;;;;;;;;5115054;28;20034;-63
2021/04/28 11:27:43;;;;;;;6.13;5.38;;;;;;;;;;5111686;28;20035;-63
2021/04/28 11:30:18;;;;;;;5.38;4.88;;;;;;;;;;5113476;28;20397;-63
2021/04/28 11:33:02;;;;;;;6.32;5.57;;;;;;;;;;5114732;28;20032;-63
2021/04/28 11:35:28;;;;;;;6.85;5.22;;;;;;;;;;5114788;28;20467;-63
2021/04/28 11:38:23;;;;;;;6.90;5.20;;;;;;;;;;5114642;28;20069;-63
2021/04/28 11:41:08;;;;;;;5.70;5.20;;;;;;;;;;5097173;27;20043;-63
2021/04/28 11:43:39;;;;;;;7.40;4.35;;;;;;;;;;5114720;28;20059;-64
2021/04/28 11:46:09;;;;;;;5.65;5.07;;;;;;;;;;5114616;28;20464;-64
2021/04/28 11:48:37;;;;;;;6.88;5.35;;;;;;;;;;5114618;28;20043;-64
2021/04/28 11:51:05;;;;;;;4.18;3.88;;;;;;;;;;5114657;28;20076;-64
2021/04/28 11:53:30;;;;;;;8.40;6.05;;;;;;;;;;5114343;28;20024;-64
2021/04/28 11:55:56;;;;;;;3.67;2.83;;;;;;;;;;5114659;28;20472;-64
2021/04/28 11:58:29;;;;;;;6.40;4.10;;;;;;;;;;5114027;28;20019;-64
2021/04/28 12:01:01;;;;;;;4.40;3.90;;;;;;;;;;5114807;28;20381;-64
2021/04/28 12:03:27;;;;;;;3.60;3.30;;;;;;;;;;5114375;28;20028;-64
2021/04/28 12:05:52;;;;;;;4.65;3.22;;;;;;;;;;5114346;28;20492;-64
2021/04/28 12:08:18;;;;;;;7.47;4.35;;;;;;;;;;5112886;28;20388;-64
2021/04/28 12:10:54;;;;;;;4.03;3.67;;;;;;;;;;5114275;28;20011;-64
2021/04/28 12:13:20;;;;;;;3.33;3.03;;;;;;;;;;5104659;28;20027;-64
2021/04/28 12:15:54;;;;;;;5.80;2.75;;;;;;;;;;5114012;28;20023;-64
2021/04/28 12:18:30;;;;;;;4.13;2.67;;;;;;;;;;5095824;28;20271;-64
2021/04/28 12:21:00;;;;;;;6.97;5.47;;;;;;;;;;5114163;28;20026;-64
2021/04/28 12:23:26;;;;;;;6.82;4.28;;;;;;;;;;5113762;28;20125;-63
2021/04/28 12:25:51;;;;;;;2.63;2.15;;;;;;;;;;5112539;28;20022;-64
2021/04/28 12:28:17;;;;;;;3.70;2.58;;;;;;;;;;5114082;28;20444;-64
2021/04/28 12:30:43;;;;;;;4.95;4.45;;;;;;;;;;5114139;28;20012;-63
2021/04/28 12:33:08;;;;;;;5.97;4.72;;;;;;;;;;5112936;28;20085;-64
2021/04/28 12:35:36;;;;;;;4.20;3.72;;;;;;;;;;5113703;28;20423;-64
2021/04/28 12:38:05;;;;;;;5.53;4.22;;;;;;;;;;5113392;28;20036;-63
2021/04/28 12:40:31;;;;;;;4.45;2.78;;;;;;;;;;5111866;28;20426;-63
2021/04/28 12:42:57;;;;;;;1.42;1.33;;;;;;;;;;5112828;28;20046;-64
2021/04/28 12:45:22;;;;;;;4.93;2.92;;;;;;;;;;5113121;28;20024;-63
2021/04/28 12:47:48;;;;;;;7.85;3.65;;;;;;;;;;5113431;28;20023;-63
2021/04/28 12:50:18;;;;;;;5.28;4.00;;;;;;;;;;5112910;28;20023;-63
2021/04/28 12:52:43;;;;;;;3.95;3.15;;;;;;;;;;5113325;28;20031;-63
2021/04/28 12:55:25;;;;;;;4.30;3.90;;;;;;;;;;5113439;28;20027;-63
2021/04/28 12:57:55;;;;;;;3.67;2.45;;;;;;;;;;5113228;28;20147;-63
2021/04/28 13:00:21;;;;;;;6.03;2.72;;;;;;;;;;5112293;28;20035;-63
2021/04/28 13:03:02;;;;;;;5.57;3.33;;;;;;;;;;5112170;28;20385;-63
2021/04/28 13:05:36;;;;;;;5.20;4.38;;;;;;;;;;5113447;28;20381;-63
2021/04/28 13:08:20;;;;;;;4.60;2.83;;;;;;;;;;5113419;28;20015;-63
2021/04/28 13:10:58;;;;;;;2.72;2.53;;;;;;;;;;5113986;28;20031;-63
2021/04/28 13:13:50;;;;;;;2.67;2.35;;;;;;;;;;5117360;28;20031;-63
2021/04/28 13:16:26;;;;;;;4.10;3.65;;;;;;;;;;5085372;28;20404;-63
2021/04/28 13:18:53;;;;;;;5.63;4.50;;;;;;;;;;5115808;28;20062;-63
2021/04/28 13:21:22;;;;;;;3.95;3.58;;;;;;;;;;5116098;28;20015;-63
2021/04/28 13:24:03;;;;;;;5.97;3.88;;;;;;;;;;5116870;28;20028;-63
2021/04/28 13:26:29;;;;;;;9.73;4.13;;;;;;;;;;5117090;28;20024;-64
2021/04/28 13:28:58;;;;;;;4.18;3.72;;;;;;;;;;5117072;28;20488;-64
2021/04/28 13:31:25;;;;;;;6.30;4.57;;;;;;;;;;5117271;28;20526;-63
2021/04/28 13:33:52;;;;;;;5.75;4.60;;;;;;;;;;5117350;28;20019;-64
2021/04/28 13:36:30;;;;;;;5.07;4.60;;;;;;;;;;5117485;28;20052;-63
2021/04/28 13:38:57;;;;;;;3.97;3.60;;;;;;;;;;5117359;28;20477;-64
2021/04/28 13:41:23;;;;;;;3.95;3.50;;;;;;;;;;5117123;28;20035;-64
2021/04/28 13:43:49;;;;;;;6.95;4.70;;;;;;;;;;5117434;28;20066;-64
2021/04/28 13:46:15;;;;;;;5.50;4.00;;;;;;;;;;5116587;28;20043;-63
2021/04/28 13:48:41;;;;;;;5.88;4.55;;;;;;;;;;5117035;28;20023;-63
2021/04/28 13:51:06;;;;;;;5.85;4.70;;;;;;;;;;5117191;28;20064;-63
2021/04/28 13:53:32;;;;;;;5.20;3.97;;;;;;;;;;5116819;28;20477;-64
2021/04/28 13:55:58;;;;;;;4.75;4.07;;;;;;;;;;5116636;28;20415;-64
2021/04/28 13:58:25;;;;;;;5.20;4.70;;;;;;;;;;5116493;28;20028;-63
2021/04/28 14:00:50;;;;;;;4.38;3.97;;;;;;;;;;5115607;28;20050;-64
2021/04/28 14:03:16;;;;;;;4.55;3.95;;;;;;;;;;5116548;28;20480;-64
2021/04/28 14:05:41;;;;;;;5.32;4.63;;;;;;;;;;5116662;28;20008;-64
2021/04/28 14:08:07;;;;;;;5.22;4.00;;;;;;;;;;5116671;28;20405;-64
2021/04/28 14:10:33;;;;;;;6.78;4.55;;;;;;;;;;5116682;27;20100;-63
2021/04/28 14:12:59;;;;;;;3.28;2.97;;;;;;;;;;5115082;28;20028;-64
2021/04/28 14:15:24;;;;;;;6.03;4.88;;;;;;;;;;5116342;28;20027;-63
2021/04/28 14:17:50;;;;;;;8.15;4.15;;;;;;;;;;5116526;28;20539;-64
2021/04/28 14:20:15;;;;;;;3.95;3.60;;;;;;;;;;5114967;28;20015;-63
2021/04/28 14:22:41;;;;;;;7.22;4.22;;;;;;;;;;5115401;28;20031;-61
2021/04/28 14:25:07;;;;;;;6.05;3.88;;;;;;;;;;5116293;28;20026;-64
2021/04/28 14:27:32;;;;;;;7.40;4.75;;;;;;;;;;5116243;28;20354;-68
2021/04/28 14:29:58;;;;;;;7.10;4.57;;;;;;;;;;5116082;28;20501;-68
2021/04/28 14:32:24;;;;;;;3.88;3.50;;;;;;;;;;5115763;28;20047;-67
2021/04/28 14:34:49;;;;;;;5.55;4.75;;;;;;;;;;5116121;28;20034;-68
2021/04/28 14:37:15;;;;;;;6.43;4.70;;;;;;;;;;5116103;28;20485;-73
2021/04/28 14:39:41;;;;;;;6.65;4.90;;;;;;;;;;5108032;28;20031;-68
2021/04/28 14:42:07;;;;;;;5.78;3.88;;;;;;;;;;5107480;28;20043;-63
2021/04/28 14:44:36;;;;;;;3.90;3.25;;;;;;;;;;5108481;28;20034;-65
2021/04/28 14:47:01;;;;;;;5.65;3.88;;;;;;;;;;5116156;28;20069;-62
2021/04/28 14:49:27;;;;;;;5.35;4.57;;;;;;;;;;5115719;28;20469;-60